LIVE Streaming HD
Get Adobe Flash player
Annunci di Google
DNA SURF-SHOP
Annunci
Annunci
BodemaAuto s.r.l
Annunci di Google
Dati meteo stazione (refresh automatico ogni minuto)
Senigallia(AN) VENTO: VELOCITÀ   PIOGGIA: QTA GIORNO TEMPERATURA: ATTUALE
SPOT: Darsena Di Senigallia RAFFICA MASSIMA: QTA MENSILE: MASSIMA:
VELOCITÀ MEDIA: QTA ANNUALE: MINIMA:
DIREZIONE: UMIDITÀ: WIND CHILL:
TIPO: DEW POINT:
BEAUFORT: PRESSIONE:
I nostri partner
Annunci Privati
Senigallia(AN) nelle ultime ore
Applica filtri in visualizzazione Intervallo delle letture nelle ultime

Ora Direzione Vento Velocita' Vento Media Vento Raffica Max. Temperatura Wind Chill Pioggia Pressione
07:32:41223 °(SW)6.1 Kts8.7 Kts27.7 Kts-63.2 °C-86.3 °C0 mm995.3 Hpa
07:28:07241 °(WSW)7.8 Kts10.4 Kts27.7 Kts-62.1 °C-88.5 °C0 mm995.3 Hpa
07:23:33242 °(WSW)14.8 Kts12.2 Kts27.7 Kts-62.1 °C-92.3 °C0 mm995.2 Hpa
07:18:58270 °(W)9.6 Kts13 Kts27.7 Kts-62.1 °C-94.4 °C0 mm995.1 Hpa
07:14:23267 °(W)12.2 Kts12.2 Kts27.7 Kts-62.1 °C-92.3 °C0 mm995 Hpa
07:08:18281 °(W)9.6 Kts12.2 Kts27.7 Kts-62.1 °C-92.3 °C0 mm995 Hpa
07:03:44263 °(W)16.5 Kts12.2 Kts27.7 Kts-62.1 °C-92.3 °C0 mm995 Hpa
06:59:11236 °(SW)6.1 Kts10.4 Kts27.7 Kts-62.1 °C-88.5 °C0 mm994.9 Hpa
06:53:06248 °(WSW)6.1 Kts7 Kts27.7 Kts-63.2 °C-79.3 °C0 mm994.9 Hpa
06:48:33306 °(NW)8.7 Kts7 Kts27.7 Kts-63.2 °C-79.3 °C0 mm994.9 Hpa
06:43:59261 °(W)7 Kts7.8 Kts27.7 Kts-62.1 °C-81.4 °C0 mm994.9 Hpa
06:39:25278 °(W)7 Kts8.7 Kts27.7 Kts-62.1 °C-84.6 °C0 mm994.8 Hpa
06:33:01274 °(W)7.8 Kts8.7 Kts27.7 Kts-62.1 °C-84.6 °C0 mm994.8 Hpa
06:29:22279 °(W)7 Kts8.7 Kts27.7 Kts-62.1 °C-84.6 °C0 mm994.8 Hpa
06:23:18275 °(W)8.7 Kts7.8 Kts27.7 Kts-62.1 °C-81.4 °C0 mm994.8 Hpa
06:18:44267 °(W)6.1 Kts8.7 Kts27.7 Kts-62.1 °C-84.6 °C0 mm994.7 Hpa
06:14:09272 °(W)8.7 Kts10.4 Kts27.7 Kts-62.1 °C-88.5 °C0 mm994.7 Hpa
06:08:05247 °(WSW)9.6 Kts13 Kts27.7 Kts-62.1 °C-94.4 °C0 mm994.5 Hpa
06:03:30263 °(W)12.2 Kts13 Kts27.7 Kts-62.1 °C-94.4 °C0 mm994.2 Hpa
05:58:08244 °(WSW)20 Kts11.3 Kts27.7 Kts-62.1 °C-90.4 °C0 mm993.9 Hpa
05:53:35235 °(SW)11.3 Kts11.3 Kts27.7 Kts-62.1 °C-90.4 °C0 mm994 Hpa
05:48:59252 °(WSW)16.5 Kts10.4 Kts27.7 Kts-62.1 °C-88.5 °C0 mm993.9 Hpa
05:44:27267 °(W)14.8 Kts9.6 Kts27.7 Kts-60.8 °C-85 °C0 mm994 Hpa
05:38:21275 °(W)7.8 Kts11.3 Kts27.7 Kts-60.8 °C-88.8 °C0 mm993.9 Hpa